Time;durP1;ratioP1;P1;durP2;ratioP2;P2;SDS_P1;SDS_P2;PMS_P1;PMS_P2;Temp;Humidity;BMP_temperature;BMP_pressure;BME280_temperature;BME280_humidity;BME280_pressure;Samples;Min_cycle;Max_cycle;Signal;HPM_P1;HPM_P2
2021/11/02 00:02:01;;;;;;;19.87;18.60;;;9.10;99.90;;;;;;5073262;28;20502;-75
2021/11/02 00:04:28;;;;;;;20.27;18.77;;;9.10;99.90;;;;;;5073039;28;20535;-75
2021/11/02 00:06:55;;;;;;;21.53;20.17;;;9.20;99.90;;;;;;5072797;28;20522;-75
2021/11/02 00:09:27;;;;;;;20.67;19.40;;;9.30;99.90;;;;;;5073072;28;20484;-75
2021/11/02 00:11:54;;;;;;;21.63;20.17;;;9.30;99.90;;;;;;5072785;28;20450;-76
2021/11/02 00:14:26;;;;;;;20.80;19.10;;;9.30;99.90;;;;;;5073026;28;20456;-76
2021/11/02 00:16:56;;;;;;;21.37;19.90;;;9.20;99.90;;;;;;5073275;28;20434;-76
2021/11/02 00:19:24;;;;;;;19.20;18.07;;;9.40;99.90;;;;;;5072881;28;20450;-77
2021/11/02 00:21:54;;;;;;;19.47;18.37;;;9.40;99.90;;;;;;5072906;28;20495;-76
2021/11/02 00:24:38;;;;;;;19.87;18.67;;;9.50;99.90;;;;;;5073027;28;20529;-75
2021/11/02 00:27:05;;;;;;;19.87;18.43;;;9.50;99.90;;;;;;5072990;28;20783;-76
2021/11/02 00:29:33;;;;;;;22.17;20.47;;;9.50;99.90;;;;;;5072754;28;20501;-76
2021/11/02 00:32:00;;;;;;;22.20;20.50;;;9.40;99.90;;;;;;5072527;28;20454;-76
2021/11/02 00:34:26;;;;;;;21.93;20.27;;;9.30;99.90;;;;;;5072154;28;20525;-77
2021/11/02 00:36:53;;;;;;;19.63;18.33;;;9.30;99.90;;;;;;5072579;28;20840;-76
2021/11/02 00:39:20;;;;;;;19.50;18.27;;;9.40;99.90;;;;;;5072672;28;20457;-76
2021/11/02 00:41:46;;;;;;;19.90;18.60;;;9.40;99.90;;;;;;5072486;28;20504;-76
2021/11/02 00:44:13;;;;;;;19.73;18.53;;;9.30;99.90;;;;;;5072405;28;20454;-76
2021/11/02 00:46:41;;;;;;;20.50;19.10;;;9.30;99.90;;;;;;5071843;28;20458;-77
2021/11/02 00:49:15;;;;;;;22.97;21.17;;;9.30;99.90;;;;;;5072190;28;20541;-77
2021/11/02 00:51:42;;;;;;;22.33;20.70;;;9.30;99.90;;;;;;5072571;28;20431;-77
2021/11/02 00:54:09;;;;;;;23.67;21.17;;;9.20;99.90;;;;;;5072501;28;20454;-77
2021/11/02 00:56:36;;;;;;;23.83;21.93;;;9.30;99.90;;;;;;5072062;28;20459;-77
2021/11/02 00:59:02;;;;;;;19.53;18.30;;;9.10;99.90;;;;;;5072305;28;20501;-74
2021/11/02 01:01:29;;;;;;;21.87;19.97;;;9.10;99.90;;;;;;5071950;28;20451;-76
2021/11/02 01:03:58;;;;;;;22.80;21.20;;;9.00;99.90;;;;;;5072026;28;20451;-76
2021/11/02 01:06:25;;;;;;;22.17;20.47;;;8.90;99.90;;;;;;5071953;28;20522;-75
2021/11/02 01:08:51;;;;;;;22.73;20.93;;;8.90;99.90;;;;;;5071898;28;20491;-75
2021/11/02 01:11:19;;;;;;;21.83;20.20;;;8.90;99.90;;;;;;5071915;28;20439;-77
2021/11/02 01:13:46;;;;;;;21.93;20.10;;;8.90;99.90;;;;;;5071591;28;20878;-77
2021/11/02 01:16:12;;;;;;;22.83;20.90;;;8.90;99.90;;;;;;5071476;28;20899;-77
2021/11/02 01:18:39;;;;;;;19.57;18.27;;;8.90;99.90;;;;;;5071299;28;20465;-77
2021/11/02 01:21:07;;;;;;;20.10;18.50;;;8.80;99.90;;;;;;5071654;28;20501;-76
2021/11/02 01:23:35;;;;;;;21.30;20.00;;;8.80;99.90;;;;;;5071626;28;20451;-76
2021/11/02 01:26:02;;;;;;;20.87;19.57;;;8.80;99.90;;;;;;5071377;28;20463;-75
2021/11/02 01:28:29;;;;;;;21.77;20.27;;;8.90;99.90;;;;;;5071151;28;20490;-75
2021/11/02 01:30:55;;;;;;;19.97;18.57;;;8.90;99.90;;;;;;5071118;28;20478;-75
2021/11/02 01:33:22;;;;;;;20.30;18.60;;;9.00;99.90;;;;;;5071072;28;20443;-75
2021/11/02 01:35:49;;;;;;;19.03;17.93;;;9.00;99.90;;;;;;5071550;28;20451;-74
2021/11/02 01:38:19;;;;;;;18.73;17.20;;;9.00;99.90;;;;;;5071238;28;20455;-74
2021/11/02 01:40:46;;;;;;;17.40;16.50;;;9.00;99.90;;;;;;5071232;28;20957;-74
2021/11/02 01:43:14;;;;;;;16.23;15.23;;;9.10;99.90;;;;;;5071237;28;20842;-74
2021/11/02 01:45:41;;;;;;;17.97;16.83;;;9.10;99.90;;;;;;5070805;28;20455;-76
2021/11/02 01:48:07;;;;;;;18.87;17.63;;;9.10;99.90;;;;;;5070808;28;20490;-74
2021/11/02 01:50:34;;;;;;;20.70;19.33;;;9.10;99.90;;;;;;5071232;28;20537;-75
2021/11/02 01:53:01;;;;;;;20.20;18.90;;;9.10;99.90;;;;;;5070968;28;20455;-75
2021/11/02 01:55:29;;;;;;;19.10;17.90;;;9.10;99.90;;;;;;5070378;28;20443;-76
2021/11/02 01:57:56;;;;;;;21.13;19.47;;;9.20;99.90;;;;;;5070274;28;20508;-75
2021/11/02 02:00:24;;;;;;;21.70;19.63;;;9.30;99.90;;;;;;5071121;28;20456;-75
2021/11/02 02:03:00;;;;;;;21.90;20.03;;;9.30;99.90;;;;;;5070850;28;20458;-75
2021/11/02 02:05:35;;;;;;;22.10;20.37;;;9.30;99.90;;;;;;5070492;28;20460;-75
2021/11/02 02:08:11;;;;;;;22.20;20.50;;;9.30;99.90;;;;;;5070708;28;20463;-75
2021/11/02 02:10:46;;;;;;;20.03;18.83;;;9.30;99.90;;;;;;5070567;28;20591;-76
2021/11/02 02:13:19;;;;;;;21.87;20.03;;;9.30;99.90;;;;;;5070588;28;20924;-76
2021/11/02 02:15:51;;;;;;;21.43;19.90;;;9.20;99.90;;;;;;5070546;28;20855;-77
2021/11/02 02:18:25;;;;;;;21.60;20.13;;;9.10;99.90;;;;;;5070832;28;20439;-76
2021/11/02 02:21:09;;;;;;;21.20;19.70;;;9.10;99.90;;;;;;5070550;28;20534;-77
2021/11/02 02:23:49;;;;;;;22.43;20.67;;;9.00;99.90;;;;;;5070750;28;20530;-77
2021/11/02 02:26:30;;;;;;;21.53;20.10;;;9.10;99.90;;;;;;5072203;28;20458;-79
2021/11/02 02:29:03;;;;;;;23.50;21.77;;;9.10;99.90;;;;;;5070780;28;20482;-78
2021/11/02 02:31:32;;;;;;;23.63;22.20;;;9.10;99.90;;;;;;5070326;28;20478;-80
2021/11/02 02:34:00;;;;;;;22.07;20.67;;;9.00;99.90;;;;;;5070222;28;20478;-78
2021/11/02 02:36:29;;;;;;;20.20;19.03;;;8.90;99.90;;;;;;5070212;28;20929;-79
2021/11/02 02:38:56;;;;;;;18.53;17.47;;;9.00;99.90;;;;;;5070234;28;20858;-79
2021/11/02 02:41:25;;;;;;;18.27;17.40;;;9.00;99.90;;;;;;5070230;28;20953;-79
2021/11/02 02:43:53;;;;;;;19.93;18.60;;;9.00;99.90;;;;;;5070233;28;20542;-79
2021/11/02 02:46:23;;;;;;;21.07;19.33;;;9.00;99.90;;;;;;5070233;28;20443;-78
2021/11/02 02:48:51;;;;;;;19.33;18.30;;;9.00;99.90;;;;;;5070097;28;20529;-79
2021/11/02 02:51:19;;;;;;;22.13;20.33;;;9.10;99.90;;;;;;5070142;28;20509;-80
2021/11/02 02:53:49;;;;;;;17.57;16.50;;;9.10;99.90;;;;;;5070034;28;20454;-79
2021/11/02 02:56:18;;;;;;;15.60;14.80;;;9.10;99.90;;;;;;5069999;28;20451;-77
2021/11/02 02:58:47;;;;;;;16.30;15.43;;;9.10;99.90;;;;;;5069927;28;20459;-77
2021/11/02 03:01:16;;;;;;;16.23;15.20;;;9.10;99.90;;;;;;5069894;28;20450;-78
2021/11/02 03:03:50;;;;;;;16.03;15.33;;;9.00;99.90;;;;;;5069990;28;20775;-77
2021/11/02 03:06:21;;;;;;;16.17;15.20;;;9.00;99.90;;;;;;5069876;28;20470;-77
2021/11/02 03:08:52;;;;;;;16.10;15.13;;;9.10;99.90;;;;;;5071004;28;20922;-77
2021/11/02 03:11:20;;;;;;;15.43;14.53;;;9.00;99.90;;;;;;5073814;28;20454;-78
2021/11/02 03:13:49;;;;;;;15.33;14.40;;;9.10;99.90;;;;;;5073772;28;20447;-78
2021/11/02 03:16:21;;;;;;;15.70;14.60;;;9.10;99.90;;;;;;5074013;28;20505;-76
2021/11/02 03:19:16;;;;;;;16.50;15.50;;;9.10;99.90;;;;;;5076542;28;20941;-78
2021/11/02 03:44:16;;;;;;;12.33;11.83;;;9.50;99.90;;;;;;5073338;28;20407;-76
2021/11/02 03:49:39;;;;;;;11.53;11.03;;;9.50;99.90;;;;;;5034501;28;20483;-76
2021/11/02 03:54:29;;;;;;;12.80;12.20;;;9.40;99.90;;;;;;5073159;28;20542;-76
2021/11/02 03:55:06;;;;;;;12.97;12.10;;;9.30;99.90;;;;;;5073270;28;20443;-76
2021/11/02 03:57:44;;;;;;;12.70;12.10;;;9.20;99.90;;;;;;5073256;28;20449;-76
2021/11/02 04:00:29;;;;;;;12.00;11.40;;;9.20;99.90;;;;;;5072973;28;20501;-76
2021/11/02 04:31:41;;;;;;;13.73;13.20;;;8.80;99.90;;;;;;5128960;27;21123;-74
2021/11/02 04:43:08;;;;;;;14.20;13.60;;;8.40;99.90;;;;;;5128724;28;20462;-76
2021/11/02 05:10:53;;;;;;;15.17;14.47;;;7.90;99.90;;;;;;5127516;27;20485;-74
2021/11/02 05:13:45;;;;;;;16.70;15.23;;;7.80;99.90;;;;;;5127876;27;20447;-74
2021/11/02 05:49:22;;;;;;;17.07;16.23;;;7.30;99.90;;;;;;5113874;28;20483;-77
2021/11/02 05:57:20;;;;;;;17.10;16.30;;;7.20;99.90;;;;;;5113121;28;20485;-77
2021/11/02 05:59:51;;;;;;;17.60;16.67;;;7.20;99.90;;;;;;5113254;28;20453;-77
2021/11/02 06:02:35;;;;;;;17.97;17.07;;;7.20;99.90;;;;;;5112906;28;20452;-77
2021/11/02 06:05:24;;;;;;;16.90;16.10;;;7.20;99.90;;;;;;5113237;28;20878;-76
2021/11/02 06:08:23;;;;;;;17.10;16.27;;;7.20;99.90;;;;;;5113644;27;20455;-85
2021/11/02 06:11:07;;;;;;;19.37;18.13;;;7.30;99.90;;;;;;5114115;27;20490;-79
2021/11/02 06:27:56;;;;;;;21.43;19.80;;;7.30;99.90;;;;;;5111254;28;20705;-74
2021/11/02 06:30:29;;;;;;;22.60;20.70;;;7.30;99.90;;;;;;5112531;28;20581;-75
2021/11/02 06:33:05;;;;;;;24.83;23.27;;;7.20;99.90;;;;;;5112490;28;20893;-75
2021/11/02 06:35:36;;;;;;;21.63;20.23;;;7.20;99.90;;;;;;5112586;28;20452;-75
2021/11/02 06:38:29;;;;;;;21.70;20.20;;;7.10;99.90;;;;;;5112647;28;20550;-75
2021/11/02 06:44:03;;;;;;;23.43;21.87;;;7.20;99.90;;;;;;5112264;28;20423;-73
2021/11/02 06:46:54;;;;;;;24.27;22.70;;;7.20;99.90;;;;;;5111949;28;20488;-74
2021/11/02 06:55:10;;;;;;;21.87;20.47;;;8.60;99.90;;;;;;5112098;28;20440;-75
2021/11/02 06:58:03;;;;;;;20.77;19.30;;;9.20;99.90;;;;;;5112366;28;20456;-74
2021/11/02 07:00:49;;;;;;;19.73;18.30;;;9.80;99.90;;;;;;5112094;28;20449;-73
2021/11/02 07:17:26;;;;;;;14.07;13.20;;;11.20;99.90;;;;;;5111339;28;20420;-73
2021/11/02 07:19:59;;;;;;;14.60;13.63;;;11.10;99.90;;;;;;5111247;28;20445;-73
2021/11/02 07:22:50;;;;;;;13.37;12.40;;;11.10;99.90;;;;;;5111259;28;20460;-73
2021/11/02 07:28:13;;;;;;;12.87;12.10;;;11.30;99.90;;;;;;5109284;28;20442;-73
2021/11/02 08:46:22;;;;;;;13.63;12.73;;;12.30;99.90;;;;;;5110222;28;20421;-76
2021/11/02 08:48:53;;;;;;;13.23;12.33;;;11.90;99.90;;;;;;5110496;28;20464;-73
2021/11/02 08:51:20;;;;;;;14.83;13.87;;;12.00;99.90;;;;;;5110339;28;21040;-74
2021/11/02 08:53:47;;;;;;;12.80;12.27;;;12.10;99.90;;;;;;5110145;28;20939;-75
2021/11/02 08:56:16;;;;;;;15.60;13.53;;;12.10;99.90;;;;;;5110194;28;20453;-75
2021/11/02 08:58:46;;;;;;;15.20;14.37;;;12.10;99.90;;;;;;5110284;28;20445;-74
2021/11/02 09:01:14;;;;;;;14.10;13.20;;;12.10;99.90;;;;;;5110217;28;20715;-74
2021/11/02 09:03:46;;;;;;;14.60;13.90;;;11.90;99.90;;;;;;5110113;28;20456;-75
2021/11/02 09:06:15;;;;;;;15.33;14.63;;;11.60;99.90;;;;;;5110154;28;20441;-75
2021/11/02 09:08:44;;;;;;;14.80;14.20;;;11.50;99.90;;;;;;5110098;28;20797;-75
2021/11/02 09:11:13;;;;;;;14.83;14.13;;;11.30;99.90;;;;;;5109998;28;20484;-75
2021/11/02 09:13:45;;;;;;;15.00;14.40;;;11.30;99.90;;;;;;5110056;28;20457;-75
2021/11/02 09:16:13;;;;;;;16.87;16.17;;;11.20;99.90;;;;;;5110899;28;20444;-74
2021/11/02 09:18:43;;;;;;;19.07;18.10;;;11.10;99.90;;;;;;5113994;28;20878;-75
2021/11/02 09:21:11;;;;;;;19.07;18.10;;;11.10;99.90;;;;;;5113817;28;20476;-74
2021/11/02 09:23:42;;;;;;;20.70;19.80;;;11.10;99.90;;;;;;5114081;28;20451;-73
2021/11/02 09:26:10;;;;;;;22.73;21.70;;;11.10;99.90;;;;;;5113368;28;20468;-73
2021/11/02 09:28:36;;;;;;;26.50;25.00;;;10.90;99.90;;;;;;5113440;28;20954;-73
2021/11/02 09:31:05;;;;;;;28.00;26.53;;;10.70;99.90;;;;;;5113755;28;20898;-72
2021/11/02 09:33:33;;;;;;;26.73;25.47;;;10.60;99.90;;;;;;5113543;28;20498;-72
2021/11/02 09:36:02;;;;;;;29.33;27.80;;;10.40;99.90;;;;;;5113725;28;20548;-73
2021/11/02 09:38:33;;;;;;;29.93;27.40;;;10.30;99.90;;;;;;5113336;28;20448;-74
2021/11/02 09:41:35;;;;;;;30.43;28.57;;;10.20;99.90;;;;;;5113557;28;20445;-71
2021/11/02 09:44:31;;;;;;;30.30;28.90;;;10.10;99.90;;;;;;5113747;28;20467;-74
2021/11/02 09:47:18;;;;;;;31.80;30.20;;;10.00;99.90;;;;;;5112225;28;20472;-74
2021/11/02 09:50:16;;;;;;;30.90;29.50;;;10.00;99.90;;;;;;5113555;27;20445;-73
2021/11/02 09:53:27;;;;;;;32.10;30.30;;;10.00;99.90;;;;;;5113275;28;20864;-74
2021/11/02 09:56:02;;;;;;;31.10;29.50;;;10.10;99.90;;;;;;5113223;28;20860;-72
2021/11/02 09:59:05;;;;;;;30.10;28.80;;;10.10;99.90;;;;;;5113281;28;20454;-74
2021/11/02 10:01:42;;;;;;;28.37;27.07;;;10.10;99.90;;;;;;5089744;28;20441;-73
2021/11/02 10:04:42;;;;;;;30.87;29.30;;;10.20;99.90;;;;;;5113203;28;20930;-73
2021/11/02 10:07:34;;;;;;;29.17;27.80;;;10.20;99.90;;;;;;5112585;28;20439;-72
2021/11/02 10:10:11;;;;;;;29.77;28.20;;;10.30;99.90;;;;;;5112898;28;20485;-73
2021/11/02 10:12:47;;;;;;;28.63;26.90;;;10.40;99.90;;;;;;5113172;28;20454;-73
2021/11/02 10:15:39;;;;;;;28.77;27.10;;;10.40;99.90;;;;;;5112960;27;20990;-73
2021/11/02 10:18:57;;;;;;;29.07;27.60;;;10.40;99.90;;;;;;5113005;28;20861;-73
2021/11/02 10:21:47;;;;;;;27.47;26.17;;;10.40;99.90;;;;;;5108665;28;20450;-73
2021/11/02 10:24:48;;;;;;;28.53;26.83;;;10.40;99.90;;;;;;5103098;28;20464;-72
2021/11/02 10:27:30;;;;;;;30.10;28.37;;;10.30;99.90;;;;;;5112554;28;20482;-73
2021/11/02 10:30:23;;;;;;;28.87;27.43;;;10.20;99.90;;;;;;5112217;28;20485;-72
2021/11/02 10:32:51;;;;;;;28.53;27.20;;;10.10;99.90;;;;;;5112585;28;20457;-72
2021/11/02 10:35:27;;;;;;;29.50;27.97;;;10.10;99.90;;;;;;5112621;28;20445;-71
2021/11/02 10:38:02;;;;;;;28.90;27.30;;;10.20;99.90;;;;;;5112388;28;20452;-72
2021/11/02 10:40:42;;;;;;;28.33;26.80;;;10.20;99.90;;;;;;5112146;28;20559;-72
2021/11/02 10:43:39;;;;;;;28.70;26.80;;;10.20;99.90;;;;;;5112055;28;20440;-72
2021/11/02 10:46:07;;;;;;;28.07;26.73;;;10.40;99.90;;;;;;5084641;28;20445;-73
2021/11/02 10:48:41;;;;;;;28.90;27.50;;;10.40;99.90;;;;;;5112368;27;20962;-72
2021/11/02 10:51:10;;;;;;;27.20;26.00;;;10.30;99.90;;;;;;5112148;28;20516;-72
2021/11/02 10:53:46;;;;;;;27.77;26.37;;;10.30;99.90;;;;;;5112379;28;20447;-72
2021/11/02 10:56:29;;;;;;;28.53;27.23;;;10.20;99.90;;;;;;5111921;28;20784;-73
2021/11/02 10:59:00;;;;;;;27.53;26.33;;;10.10;99.90;;;;;;5111984;28;20449;-72
2021/11/02 11:01:29;;;;;;;28.50;27.00;;;10.00;99.90;;;;;;5111846;28;20458;-72
2021/11/02 11:03:56;;;;;;;27.83;26.17;;;10.00;99.90;;;;;;5111986;28;20460;-72
2021/11/02 11:06:25;;;;;;;29.60;27.97;;;10.00;99.90;;;;;;5111909;28;21013;-73
2021/11/02 11:08:54;;;;;;;26.97;25.77;;;10.10;99.90;;;;;;5111962;28;20449;-72
2021/11/02 11:11:26;;;;;;;26.60;25.50;;;10.10;99.90;;;;;;5111947;28;20489;-73
2021/11/02 11:14:00;;;;;;;27.10;25.73;;;10.10;99.90;;;;;;5111729;28;20868;-73
2021/11/02 11:16:29;;;;;;;25.10;23.93;;;10.20;99.90;;;;;;5111570;28;21105;-72
2021/11/02 11:19:06;;;;;;;23.87;22.77;;;10.20;99.90;;;;;;5111447;28;20445;-73
2021/11/02 11:21:35;;;;;;;24.83;23.60;;;10.10;99.90;;;;;;5111748;28;20441;-72
2021/11/02 11:24:08;;;;;;;24.67;23.27;;;10.20;99.90;;;;;;5111569;28;20446;-72
2021/11/02 11:26:35;;;;;;;24.13;22.83;;;10.20;99.90;;;;;;5111743;28;20498;-73
2021/11/02 11:29:05;;;;;;;22.60;21.30;;;10.30;99.90;;;;;;5111218;28;20471;-72
2021/11/02 11:31:35;;;;;;;19.70;18.83;;;10.40;99.90;;;;;;5111147;28;20481;-73
2021/11/02 11:34:04;;;;;;;19.17;18.37;;;10.40;99.90;;;;;;5111490;28;20464;-72
2021/11/02 11:36:33;;;;;;;20.03;18.80;;;10.60;99.90;;;;;;5111326;28;20458;-72
2021/11/02 11:39:03;;;;;;;19.40;18.20;;;10.60;99.90;;;;;;5110605;28;20481;-72
2021/11/02 11:41:34;;;;;;;18.87;17.80;;;10.70;99.90;;;;;;5111137;28;20499;-72
2021/11/02 11:44:03;;;;;;;17.20;16.40;;;10.90;99.90;;;;;;5111035;28;20456;-72
2021/11/02 11:46:32;;;;;;;17.50;16.67;;;11.20;99.90;;;;;;5110868;28;20452;-73
2021/11/02 11:49:00;;;;;;;16.90;16.10;;;11.60;99.90;;;;;;5110853;28;21001;-73
2021/11/02 11:51:31;;;;;;;15.10;14.40;;;11.90;99.90;;;;;;5110931;28;20639;-72
2021/11/02 11:54:00;;;;;;;16.03;15.13;;;12.10;99.90;;;;;;5111285;28;20548;-72
2021/11/02 11:56:34;;;;;;;16.07;15.17;;;12.50;99.90;;;;;;5111073;28;20530;-73
2021/11/02 11:59:01;;;;;;;15.20;14.40;;;12.70;99.90;;;;;;5110927;28;20528;-73
2021/11/02 12:01:36;;;;;;;13.70;12.83;;;12.80;99.90;;;;;;5110969;28;20457;-73
2021/11/02 12:04:10;;;;;;;12.70;12.20;;;12.80;99.90;;;;;;5111110;28;20517;-72
2021/11/02 12:06:45;;;;;;;12.13;11.70;;;12.80;99.90;;;;;;5110982;28;20938;-73
2021/11/02 12:09:17;;;;;;;13.47;12.90;;;13.00;99.90;;;;;;5110559;28;20813;-72
2021/11/02 12:11:46;;;;;;;13.10;12.60;;;13.20;99.90;;;;;;5110484;28;20477;-73
2021/11/02 12:14:19;;;;;;;12.40;11.90;;;13.00;99.90;;;;;;5110755;28;20646;-73
2021/11/02 12:16:46;;;;;;;12.63;12.23;;;12.90;99.90;;;;;;5110749;28;20789;-73
2021/11/02 12:19:18;;;;;;;13.60;12.90;;;12.80;99.90;;;;;;5110272;28;20935;-73
2021/11/02 12:22:01;;;;;;;12.60;12.00;;;12.70;99.90;;;;;;5111697;28;20471;-72
2021/11/02 12:24:30;;;;;;;12.53;12.10;;;12.80;99.90;;;;;;5111657;28;20971;-72
2021/11/02 12:27:12;;;;;;;12.80;12.30;;;12.90;99.90;;;;;;5110437;28;20506;-72
2021/11/02 12:29:40;;;;;;;12.63;12.23;;;13.10;99.90;;;;;;5110201;28;20843;-72
2021/11/02 12:32:11;;;;;;;12.73;12.27;;;13.00;99.90;;;;;;5110224;28;20580;-73
2021/11/02 12:34:45;;;;;;;13.20;12.70;;;12.90;99.90;;;;;;5110726;28;20453;-72
2021/11/02 12:37:13;;;;;;;12.70;12.30;;;12.90;99.90;;;;;;5110394;28;20897;-73
2021/11/02 12:39:42;;;;;;;12.93;12.43;;;13.00;99.90;;;;;;5110186;28;20857;-73
2021/11/02 12:42:11;;;;;;;12.50;12.10;;;13.00;99.90;;;;;;5110158;28;20445;-73
2021/11/02 12:44:40;;;;;;;11.60;11.20;;;13.00;99.90;;;;;;5110208;28;20445;-73
2021/11/02 12:47:11;;;;;;;12.23;11.83;;;13.00;99.90;;;;;;5110275;28;20433;-73
2021/11/02 12:49:45;;;;;;;12.70;12.10;;;13.00;99.90;;;;;;5109914;28;20445;-73
2021/11/02 12:52:14;;;;;;;12.20;11.80;;;13.30;99.90;;;;;;5112885;28;20757;-72
2021/11/02 12:54:41;;;;;;;11.83;11.43;;;13.30;99.90;;;;;;5114216;28;20857;-73
2021/11/02 12:57:13;;;;;;;11.90;11.50;;;13.00;99.90;;;;;;5114242;28;20498;-72
2021/11/02 12:59:47;;;;;;;11.27;10.97;;;13.00;99.90;;;;;;5114216;28;20445;-73
2021/11/02 13:02:20;;;;;;;11.30;11.00;;;13.30;99.90;;;;;;5113976;28;20464;-73
2021/11/02 13:04:55;;;;;;;11.20;10.90;;;13.40;99.90;;;;;;5114203;28;20506;-74
2021/11/02 13:07:22;;;;;;;11.20;10.80;;;13.60;99.90;;;;;;5114257;27;20497;-72
2021/11/02 13:09:51;;;;;;;10.50;10.20;;;13.70;99.90;;;;;;5114377;28;20502;-72
2021/11/02 13:12:24;;;;;;;11.13;10.70;;;13.80;99.90;;;;;;5113867;28;20491;-71
2021/11/02 13:14:52;;;;;;;10.90;10.60;;;14.10;99.90;;;;;;5114202;28;20445;-72
2021/11/02 13:17:23;;;;;;;11.00;10.60;;;14.50;99.90;;;;;;5113928;28;20974;-71
2021/11/02 13:19:53;;;;;;;10.63;10.33;;;14.70;99.90;;;;;;5113834;28;20802;-73
2021/11/02 13:22:22;;;;;;;10.77;10.37;;;14.60;99.90;;;;;;5113854;28;20468;-73
2021/11/02 13:25:06;;;;;;;10.57;10.27;;;14.70;99.90;;;;;;5113923;28;20445;-73
2021/11/02 13:27:37;;;;;;;11.20;10.90;;;15.00;99.90;;;;;;5113669;28;20442;-72
2021/11/02 13:30:22;;;;;;;10.27;9.97;;;14.90;99.90;;;;;;5113489;28;20504;-71
2021/11/02 13:33:02;;;;;;;10.40;10.07;;;14.10;99.90;;;;;;5112912;28;20492;-71
2021/11/02 13:35:53;;;;;;;10.20;9.90;;;13.80;99.90;;;;;;5113609;27;20716;-72
2021/11/02 13:38:31;;;;;;;11.20;10.90;;;13.60;99.90;;;;;;5106357;28;20476;-73
2021/11/02 13:41:01;;;;;;;10.60;10.30;;;13.10;99.90;;;;;;5113339;28;20452;-73
2021/11/02 13:43:34;;;;;;;10.50;10.10;;;13.00;99.90;;;;;;5113418;28;20717;-73
2021/11/02 13:46:02;;;;;;;10.40;10.10;;;12.80;99.90;;;;;;5113361;28;20445;-73
2021/11/02 13:48:30;;;;;;;10.77;10.37;;;12.80;99.90;;;;;;5113374;28;20470;-74
2021/11/02 13:50:58;;;;;;;10.03;9.73;;;12.60;99.90;;;;;;5113278;28;20689;-74
2021/11/02 13:53:25;;;;;;;9.80;9.50;;;12.50;99.90;;;;;;5113421;28;20467;-72
2021/11/02 13:55:52;;;;;;;10.33;10.03;;;12.20;99.90;;;;;;5113418;28;20449;-72
2021/11/02 13:58:19;;;;;;;10.23;9.93;;;12.20;99.90;;;;;;5113447;28;20445;-71
2021/11/02 14:00:47;;;;;;;10.10;9.70;;;12.20;99.90;;;;;;5112971;28;20445;-72
2021/11/02 14:03:17;;;;;;;10.27;9.97;;;12.30;99.90;;;;;;5112582;27;20778;-72
2021/11/02 14:05:47;;;;;;;10.40;10.10;;;12.30;99.90;;;;;;5112850;28;20495;-72
2021/11/02 14:08:18;;;;;;;10.83;10.53;;;12.30;99.90;;;;;;5112964;28;20844;-72
2021/11/02 14:10:51;;;;;;;9.47;9.17;;;12.20;99.90;;;;;;5112775;28;20943;-73
2021/11/02 14:13:37;;;;;;;10.80;10.50;;;12.20;99.90;;;;;;5113047;28;20838;-72
2021/11/02 14:16:05;;;;;;;11.27;10.90;;;12.20;99.90;;;;;;5112981;28;20490;-73
2021/11/02 14:18:33;;;;;;;10.77;10.47;;;12.40;99.90;;;;;;5113013;28;20448;-74
2021/11/02 14:21:00;;;;;;;10.90;10.60;;;12.60;99.90;;;;;;5112643;28;20456;-74
2021/11/02 14:23:35;;;;;;;10.73;10.43;;;12.80;99.90;;;;;;5112567;28;20991;-74
2021/11/02 14:26:21;;;;;;;11.10;10.70;;;12.90;99.90;;;;;;5112605;28;20933;-73
2021/11/02 14:28:50;;;;;;;11.00;10.60;;;12.90;99.90;;;;;;5112693;28;20542;-74
2021/11/02 14:31:48;;;;;;;11.90;11.20;;;12.80;99.90;;;;;;5112240;27;20481;-74
2021/11/02 14:34:46;;;;;;;11.50;10.80;;;12.70;99.90;;;;;;5099257;28;20454;-74
2021/11/02 14:37:16;;;;;;;12.27;11.37;;;12.60;99.90;;;;;;5111979;28;20966;-74
2021/11/02 14:40:04;;;;;;;11.07;10.53;;;12.50;99.90;;;;;;5112074;28;20438;-73
2021/11/02 14:42:46;;;;;;;11.30;10.60;;;12.40;99.90;;;;;;5112324;28;20444;-74
2021/11/02 14:45:14;;;;;;;10.57;10.27;;;12.30;99.90;;;;;;5112205;28;20452;-74
2021/11/02 14:47:42;;;;;;;10.90;10.50;;;12.20;99.90;;;;;;5112381;28;20445;-73
2021/11/02 14:50:34;;;;;;;11.27;10.77;;;12.10;99.90;;;;;;5112244;28;20844;-73
2021/11/02 14:53:16;;;;;;;12.00;11.37;;;12.10;99.90;;;;;;5112074;28;20480;-75
2021/11/02 14:55:51;;;;;;;11.40;11.00;;;12.20;99.90;;;;;;5111786;28;20456;-73
2021/11/02 14:58:50;;;;;;;12.30;11.40;;;12.10;99.90;;;;;;5112194;28;20444;-73
2021/11/02 15:01:20;;;;;;;11.10;10.50;;;12.00;99.90;;;;;;5112187;27;20848;-73
2021/11/02 15:03:58;;;;;;;11.67;10.93;;;12.00;99.90;;;;;;5112142;28;20882;-74
2021/11/02 15:06:31;;;;;;;13.50;12.10;;;12.00;99.90;;;;;;5112038;27;20892;-74
2021/11/02 15:08:59;;;;;;;12.00;11.30;;;12.10;99.90;;;;;;5111913;28;20858;-74
2021/11/02 15:11:26;;;;;;;11.93;11.23;;;12.10;99.90;;;;;;5111786;28;20456;-73
2021/11/02 15:13:54;;;;;;;11.60;11.17;;;12.00;99.90;;;;;;5110992;28;20477;-73
2021/11/02 15:16:22;;;;;;;10.70;10.40;;;11.90;99.90;;;;;;5111857;28;20506;-74
2021/11/02 15:18:50;;;;;;;11.30;11.00;;;12.00;99.90;;;;;;5111950;28;20453;-75
2021/11/02 15:21:28;;;;;;;11.20;10.60;;;12.00;99.90;;;;;;5111720;28;20457;-74
2021/11/02 15:23:55;;;;;;;11.00;10.67;;;11.90;99.90;;;;;;5111589;28;20514;-75
2021/11/02 15:26:22;;;;;;;11.33;10.93;;;11.80;99.90;;;;;;5111596;28;21044;-74
2021/11/02 15:28:51;;;;;;;11.40;11.00;;;11.70;99.90;;;;;;5111386;28;20460;-74
2021/11/02 15:31:21;;;;;;;11.07;10.67;;;11.40;99.90;;;;;;5111410;28;20471;-75
2021/11/02 15:33:48;;;;;;;10.77;10.47;;;11.40;99.90;;;;;;5111438;28;20552;-72
2021/11/02 15:36:21;;;;;;;10.57;10.23;;;11.40;99.90;;;;;;5111194;28;20446;-73
2021/11/02 15:39:07;;;;;;;10.63;10.33;;;11.40;99.90;;;;;;5111375;28;20814;-74
2021/11/02 15:41:34;;;;;;;11.47;11.17;;;11.30;99.90;;;;;;5111447;28;20448;-73
2021/11/02 15:44:04;;;;;;;12.77;12.37;;;11.30;99.90;;;;;;5111157;28;20449;-74
2021/11/02 15:46:36;;;;;;;11.83;11.43;;;11.20;99.90;;;;;;5110873;28;20942;-73
2021/11/02 15:49:05;;;;;;;12.33;11.93;;;10.90;99.90;;;;;;5111017;28;20490;-73
2021/11/02 15:51:35;;;;;;;11.77;11.13;;;10.80;99.90;;;;;;5110916;28;20452;-73
2021/11/02 15:54:07;;;;;;;11.57;11.07;;;10.70;99.90;;;;;;5111217;28;20441;-73
2021/11/02 15:56:34;;;;;;;11.73;11.33;;;10.40;99.90;;;;;;5111112;28;20441;-73
2021/11/02 15:59:02;;;;;;;11.27;10.63;;;10.40;99.90;;;;;;5110778;28;20445;-73
2021/11/02 16:01:31;;;;;;;11.00;10.60;;;10.30;99.90;;;;;;5110893;28;20573;-73
2021/11/02 16:04:07;;;;;;;10.80;10.40;;;10.20;99.90;;;;;;5110587;28;20859;-72
2021/11/02 16:06:50;;;;;;;10.73;10.23;;;10.10;99.90;;;;;;5110978;28;20487;-73
2021/11/02 16:09:17;;;;;;;11.13;10.60;;;10.10;99.90;;;;;;5110935;28;20437;-74
2021/11/02 16:11:43;;;;;;;10.40;9.70;;;10.20;99.90;;;;;;5110892;28;20445;-73
2021/11/02 16:14:11;;;;;;;10.50;10.10;;;10.20;99.90;;;;;;5110686;28;20510;-75
2021/11/02 16:16:38;;;;;;;10.77;10.37;;;10.10;99.90;;;;;;5110561;28;20445;-73
2021/11/02 16:19:06;;;;;;;12.20;11.47;;;10.10;99.90;;;;;;5110674;28;20502;-73
2021/11/02 16:21:33;;;;;;;11.20;10.80;;;10.10;99.90;;;;;;5110383;28;20499;-74
2021/11/02 16:24:10;;;;;;;10.43;10.13;;;10.10;99.90;;;;;;5110246;28;20889;-73
2021/11/02 16:26:39;;;;;;;11.20;10.70;;;10.10;99.90;;;;;;5110276;28;20841;-75
2021/11/02 16:29:16;;;;;;;11.60;11.20;;;10.20;99.90;;;;;;5110314;28;20512;-73
2021/11/02 16:31:45;;;;;;;10.93;10.60;;;10.20;99.90;;;;;;5109966;28;20845;-73
2021/11/02 16:34:16;;;;;;;10.27;9.97;;;10.20;99.90;;;;;;5110156;28;20460;-74
2021/11/02 16:36:43;;;;;;;10.20;9.90;;;10.30;99.90;;;;;;5110192;28;20457;-74
2021/11/02 16:39:20;;;;;;;10.30;9.93;;;10.30;99.90;;;;;;5110277;28;20452;-73
2021/11/02 16:41:48;;;;;;;10.23;9.90;;;10.30;99.90;;;;;;5110334;28;20441;-74
2021/11/02 16:44:17;;;;;;;10.70;10.40;;;10.30;99.90;;;;;;5110095;28;20493;-73
2021/11/02 16:46:46;;;;;;;11.33;10.93;;;10.40;99.90;;;;;;5110313;28;20456;-74
2021/11/02 16:49:14;;;;;;;11.87;11.47;;;10.40;99.90;;;;;;5110337;28;20448;-74
2021/11/02 16:51:44;;;;;;;12.13;11.73;;;10.40;99.90;;;;;;5110166;28;20446;-74
2021/11/02 16:54:12;;;;;;;12.90;12.40;;;10.40;99.90;;;;;;5110168;28;20784;-73
2021/11/02 16:56:59;;;;;;;14.00;13.50;;;10.40;99.90;;;;;;5110351;28;20479;-73
2021/11/02 16:59:48;;;;;;;15.70;15.20;;;10.30;99.90;;;;;;5109913;28;20801;-71
2021/11/02 17:02:16;;;;;;;18.47;17.87;;;10.30;99.90;;;;;;5110043;28;20445;-74
2021/11/02 17:04:43;;;;;;;19.40;18.70;;;10.10;99.90;;;;;;5110059;28;20805;-73